Terminal Aerodrome Forecast
Issued by NWS Wakefield, VA

Home | Current Version | Previous Version | Text Only | Print | Product List | Glossary On
Versions: 1 2 3 4 5 6 7 8 9 10 11 12 13 14 15 16 17 18 19 20 21 22 23 24
000
FTUS41 KAKQ 050800 AAA
TAFRIC
TAF AMD
KRIC 050808Z 0508/0606 03014G22KT 4SM -RA BR BKN007
     FM051200 02015G25KT 1SM -RAPL BR OVC007
     FM051800 01015G24KT 1/2SM SN FG OVC005
     FM060100 36014KT 4SM BR OVC007=

USA.gov is the U.S. government's official web portal to all federal, state and local government web resources and services.